sensor_id;sensor_type;location;lat;lon;timestamp;P1;durP1;ratioP1;P2;durP2;ratioP2
42662;SDS011;44330;51.360;6.686;2023-07-31T00:01:27;12.43;;;5.35;;
42662;SDS011;44330;51.360;6.686;2023-07-31T00:03:53;13.43;;;5.00;;
42662;SDS011;44330;51.360;6.686;2023-07-31T00:06:18;22.45;;;4.90;;
42662;SDS011;44330;51.360;6.686;2023-07-31T00:08:44;18.00;;;4.50;;
42662;SDS011;44330;51.360;6.686;2023-07-31T00:11:09;14.10;;;5.03;;
42662;SDS011;44330;51.360;6.686;2023-07-31T00:13:35;13.77;;;4.43;;
42662;SDS011;44330;51.360;6.686;2023-07-31T00:16:01;17.25;;;5.15;;
42662;SDS011;44330;51.360;6.686;2023-07-31T00:18:26;13.38;;;5.25;;
42662;SDS011;44330;51.360;6.686;2023-07-31T00:20:52;13.75;;;4.88;;
42662;SDS011;44330;51.360;6.686;2023-07-31T00:23:18;16.90;;;5.40;;
42662;SDS011;44330;51.360;6.686;2023-07-31T00:25:43;12.27;;;5.45;;
42662;SDS011;44330;51.360;6.686;2023-07-31T00:28:09;17.42;;;5.70;;
42662;SDS011;44330;51.360;6.686;2023-07-31T00:30:35;14.93;;;5.63;;
42662;SDS011;44330;51.360;6.686;2023-07-31T00:33:00;15.25;;;5.70;;
42662;SDS011;44330;51.360;6.686;2023-07-31T00:35:26;13.38;;;4.85;;
42662;SDS011;44330;51.360;6.686;2023-07-31T00:37:51;16.73;;;5.68;;
42662;SDS011;44330;51.360;6.686;2023-07-31T00:40:17;19.92;;;5.35;;
42662;SDS011;44330;51.360;6.686;2023-07-31T00:42:42;20.10;;;5.18;;
42662;SDS011;44330;51.360;6.686;2023-07-31T00:45:08;13.25;;;5.20;;
42662;SDS011;44330;51.360;6.686;2023-07-31T00:47:34;11.25;;;4.30;;
42662;SDS011;44330;51.360;6.686;2023-07-31T00:49:59;14.38;;;4.72;;
42662;SDS011;44330;51.360;6.686;2023-07-31T00:52:25;13.27;;;4.88;;
42662;SDS011;44330;51.360;6.686;2023-07-31T00:54:51;11.98;;;5.10;;
42662;SDS011;44330;51.360;6.686;2023-07-31T00:57:16;11.48;;;4.45;;
42662;SDS011;44330;51.360;6.686;2023-07-31T00:59:42;12.30;;;4.25;;
42662;SDS011;44330;51.360;6.686;2023-07-31T01:02:07;15.90;;;4.78;;
42662;SDS011;44330;51.360;6.686;2023-07-31T01:04:33;15.32;;;5.53;;
42662;SDS011;44330;51.360;6.686;2023-07-31T01:09:49;11.23;;;3.97;;
42662;SDS011;44330;51.360;6.686;2023-07-31T01:12:24;14.07;;;4.90;;
42662;SDS011;44330;51.360;6.686;2023-07-31T01:15:06;11.80;;;3.92;;
42662;SDS011;44330;51.360;6.686;2023-07-31T01:17:36;14.70;;;4.32;;
42662;SDS011;44330;51.360;6.686;2023-07-31T01:20:38;12.48;;;4.07;;
42662;SDS011;44330;51.360;6.686;2023-07-31T01:26:05;21.40;;;4.65;;
42662;SDS011;44330;51.360;6.686;2023-07-31T01:28:54;18.70;;;4.55;;
42662;SDS011;44330;51.360;6.686;2023-07-31T01:31:24;12.70;;;3.95;;
42662;SDS011;44330;51.360;6.686;2023-07-31T01:33:52;13.27;;;5.00;;
42662;SDS011;44330;51.360;6.686;2023-07-31T01:36:19;16.20;;;3.97;;
42662;SDS011;44330;51.360;6.686;2023-07-31T01:38:45;17.50;;;4.72;;
42662;SDS011;44330;51.360;6.686;2023-07-31T01:41:10;11.75;;;5.32;;
42662;SDS011;44330;51.360;6.686;2023-07-31T01:43:36;14.88;;;4.93;;
42662;SDS011;44330;51.360;6.686;2023-07-31T01:46:02;11.38;;;4.28;;
42662;SDS011;44330;51.360;6.686;2023-07-31T01:48:27;13.88;;;4.90;;
42662;SDS011;44330;51.360;6.686;2023-07-31T01:50:53;13.60;;;5.03;;
42662;SDS011;44330;51.360;6.686;2023-07-31T01:53:18;10.68;;;3.90;;
42662;SDS011;44330;51.360;6.686;2023-07-31T01:55:44;15.90;;;4.25;;
42662;SDS011;44330;51.360;6.686;2023-07-31T01:58:09;13.05;;;4.28;;
42662;SDS011;44330;51.360;6.686;2023-07-31T02:00:35;10.73;;;3.97;;
42662;SDS011;44330;51.360;6.686;2023-07-31T02:03:00;15.15;;;4.60;;
42662;SDS011;44330;51.360;6.686;2023-07-31T02:05:26;12.13;;;4.60;;
42662;SDS011;44330;51.360;6.686;2023-07-31T02:07:52;15.32;;;5.00;;
42662;SDS011;44330;51.360;6.686;2023-07-31T02:10:17;14.18;;;4.63;;
42662;SDS011;44330;51.360;6.686;2023-07-31T02:12:43;14.55;;;4.50;;
42662;SDS011;44330;51.360;6.686;2023-07-31T02:15:08;16.98;;;5.05;;
42662;SDS011;44330;51.360;6.686;2023-07-31T02:17:34;13.18;;;4.82;;
42662;SDS011;44330;51.360;6.686;2023-07-31T02:20:00;15.20;;;4.78;;
42662;SDS011;44330;51.360;6.686;2023-07-31T02:22:26;17.08;;;4.93;;
42662;SDS011;44330;51.360;6.686;2023-07-31T02:24:51;13.23;;;4.50;;
42662;SDS011;44330;51.360;6.686;2023-07-31T02:27:17;23.63;;;5.10;;
42662;SDS011;44330;51.360;6.686;2023-07-31T02:29:42;14.90;;;4.47;;
42662;SDS011;44330;51.360;6.686;2023-07-31T02:32:08;22.30;;;5.10;;
42662;SDS011;44330;51.360;6.686;2023-07-31T02:34:33;22.02;;;6.07;;
42662;SDS011;44330;51.360;6.686;2023-07-31T02:36:59;12.15;;;4.38;;
42662;SDS011;44330;51.360;6.686;2023-07-31T02:39:24;14.05;;;4.95;;
42662;SDS011;44330;51.360;6.686;2023-07-31T02:41:50;16.65;;;4.75;;
42662;SDS011;44330;51.360;6.686;2023-07-31T02:44:15;26.15;;;5.97;;
42662;SDS011;44330;51.360;6.686;2023-07-31T02:46:41;16.95;;;4.47;;
42662;SDS011;44330;51.360;6.686;2023-07-31T02:49:06;11.93;;;3.92;;
42662;SDS011;44330;51.360;6.686;2023-07-31T02:51:32;18.88;;;5.45;;
42662;SDS011;44330;51.360;6.686;2023-07-31T02:53:57;19.45;;;5.18;;
42662;SDS011;44330;51.360;6.686;2023-07-31T02:56:23;16.45;;;5.30;;
42662;SDS011;44330;51.360;6.686;2023-07-31T02:58:48;16.38;;;5.80;;
42662;SDS011;44330;51.360;6.686;2023-07-31T03:01:14;12.23;;;4.35;;
42662;SDS011;44330;51.360;6.686;2023-07-31T03:03:40;13.13;;;4.55;;
42662;SDS011;44330;51.360;6.686;2023-07-31T03:06:06;13.43;;;5.10;;
42662;SDS011;44330;51.360;6.686;2023-07-31T03:08:32;18.55;;;4.97;;
42662;SDS011;44330;51.360;6.686;2023-07-31T03:10:58;16.15;;;4.72;;
42662;SDS011;44330;51.360;6.686;2023-07-31T03:13:23;15.90;;;4.82;;
42662;SDS011;44330;51.360;6.686;2023-07-31T03:15:49;22.15;;;4.50;;
42662;SDS011;44330;51.360;6.686;2023-07-31T03:18:15;15.68;;;4.57;;
42662;SDS011;44330;51.360;6.686;2023-07-31T03:20:43;18.58;;;5.20;;
42662;SDS011;44330;51.360;6.686;2023-07-31T03:23:09;17.55;;;4.68;;
42662;SDS011;44330;51.360;6.686;2023-07-31T03:25:34;16.33;;;5.00;;
42662;SDS011;44330;51.360;6.686;2023-07-31T03:28:00;22.15;;;5.25;;
42662;SDS011;44330;51.360;6.686;2023-07-31T03:30:26;12.70;;;4.82;;
42662;SDS011;44330;51.360;6.686;2023-07-31T03:32:51;14.90;;;4.72;;
42662;SDS011;44330;51.360;6.686;2023-07-31T03:35:17;12.18;;;4.68;;
42662;SDS011;44330;51.360;6.686;2023-07-31T03:37:42;15.60;;;4.70;;
42662;SDS011;44330;51.360;6.686;2023-07-31T03:40:08;15.32;;;4.95;;
42662;SDS011;44330;51.360;6.686;2023-07-31T03:42:34;16.70;;;5.13;;
42662;SDS011;44330;51.360;6.686;2023-07-31T03:45:00;14.77;;;5.45;;
42662;SDS011;44330;51.360;6.686;2023-07-31T03:47:26;12.77;;;5.00;;
42662;SDS011;44330;51.360;6.686;2023-07-31T03:49:51;15.60;;;4.88;;
42662;SDS011;44330;51.360;6.686;2023-07-31T03:52:17;17.25;;;4.97;;
42662;SDS011;44330;51.360;6.686;2023-07-31T03:54:42;14.98;;;5.18;;
42662;SDS011;44330;51.360;6.686;2023-07-31T03:57:09;13.93;;;5.57;;
42662;SDS011;44330;51.360;6.686;2023-07-31T03:59:35;22.00;;;6.28;;
42662;SDS011;44330;51.360;6.686;2023-07-31T04:02:03;14.00;;;4.70;;
42662;SDS011;44330;51.360;6.686;2023-07-31T04:04:29;16.50;;;4.82;;
42662;SDS011;44330;51.360;6.686;2023-07-31T04:06:54;13.52;;;4.60;;
42662;SDS011;44330;51.360;6.686;2023-07-31T04:09:20;15.98;;;5.20;;
42662;SDS011;44330;51.360;6.686;2023-07-31T04:11:45;14.85;;;4.13;;
42662;SDS011;44330;51.360;6.686;2023-07-31T04:14:11;14.98;;;4.80;;
42662;SDS011;44330;51.360;6.686;2023-07-31T04:16:36;9.60;;;4.13;;
42662;SDS011;44330;51.360;6.686;2023-07-31T04:19:02;15.88;;;5.15;;
42662;SDS011;44330;51.360;6.686;2023-07-31T04:21:28;12.63;;;5.45;;
42662;SDS011;44330;51.360;6.686;2023-07-31T04:23:53;13.27;;;4.50;;
42662;SDS011;44330;51.360;6.686;2023-07-31T04:26:21;18.85;;;5.72;;
42662;SDS011;44330;51.360;6.686;2023-07-31T04:28:46;17.90;;;4.55;;
42662;SDS011;44330;51.360;6.686;2023-07-31T04:31:12;17.83;;;5.40;;
42662;SDS011;44330;51.360;6.686;2023-07-31T04:33:38;14.27;;;5.55;;
42662;SDS011;44330;51.360;6.686;2023-07-31T04:36:04;13.02;;;5.60;;
42662;SDS011;44330;51.360;6.686;2023-07-31T04:38:30;19.70;;;5.75;;
42662;SDS011;44330;51.360;6.686;2023-07-31T04:40:55;14.77;;;4.95;;
42662;SDS011;44330;51.360;6.686;2023-07-31T04:43:21;13.35;;;4.85;;
42662;SDS011;44330;51.360;6.686;2023-07-31T04:45:46;15.50;;;5.20;;
42662;SDS011;44330;51.360;6.686;2023-07-31T04:48:12;9.07;;;4.20;;
42662;SDS011;44330;51.360;6.686;2023-07-31T04:50:38;16.60;;;5.47;;
42662;SDS011;44330;51.360;6.686;2023-07-31T04:53:04;13.52;;;5.15;;
42662;SDS011;44330;51.360;6.686;2023-07-31T04:55:29;16.60;;;5.65;;
42662;SDS011;44330;51.360;6.686;2023-07-31T04:57:55;17.33;;;6.05;;
42662;SDS011;44330;51.360;6.686;2023-07-31T05:00:20;14.15;;;5.65;;
42662;SDS011;44330;51.360;6.686;2023-07-31T05:02:46;14.68;;;5.07;;
42662;SDS011;44330;51.360;6.686;2023-07-31T05:05:12;16.05;;;5.40;;
42662;SDS011;44330;51.360;6.686;2023-07-31T05:07:38;13.95;;;5.97;;
42662;SDS011;44330;51.360;6.686;2023-07-31T05:10:03;11.80;;;5.20;;
42662;SDS011;44330;51.360;6.686;2023-07-31T05:12:29;15.75;;;5.97;;
42662;SDS011;44330;51.360;6.686;2023-07-31T05:14:55;17.42;;;5.88;;
42662;SDS011;44330;51.360;6.686;2023-07-31T05:17:20;16.42;;;5.43;;
42662;SDS011;44330;51.360;6.686;2023-07-31T05:19:46;12.82;;;5.55;;
42662;SDS011;44330;51.360;6.686;2023-07-31T05:22:12;14.20;;;5.00;;
42662;SDS011;44330;51.360;6.686;2023-07-31T05:24:37;13.18;;;5.35;;
42662;SDS011;44330;51.360;6.686;2023-07-31T05:27:03;13.32;;;4.93;;
42662;SDS011;44330;51.360;6.686;2023-07-31T05:29:29;12.63;;;4.78;;
42662;SDS011;44330;51.360;6.686;2023-07-31T05:31:55;13.88;;;5.03;;
42662;SDS011;44330;51.360;6.686;2023-07-31T05:34:21;10.75;;;4.97;;
42662;SDS011;44330;51.360;6.686;2023-07-31T05:36:46;13.65;;;4.65;;
42662;SDS011;44330;51.360;6.686;2023-07-31T05:39:12;12.98;;;4.72;;
42662;SDS011;44330;51.360;6.686;2023-07-31T05:41:39;15.48;;;5.35;;
42662;SDS011;44330;51.360;6.686;2023-07-31T05:44:04;11.43;;;4.75;;
42662;SDS011;44330;51.360;6.686;2023-07-31T05:46:30;15.23;;;5.20;;
42662;SDS011;44330;51.360;6.686;2023-07-31T05:48:56;8.48;;;4.65;;
42662;SDS011;44330;51.360;6.686;2023-07-31T05:51:21;15.30;;;5.55;;
42662;SDS011;44330;51.360;6.686;2023-07-31T05:53:47;11.85;;;4.85;;
42662;SDS011;44330;51.360;6.686;2023-07-31T05:56:13;10.38;;;4.97;;
42662;SDS011;44330;51.360;6.686;2023-07-31T05:58:38;12.68;;;5.28;;
42662;SDS011;44330;51.360;6.686;2023-07-31T06:01:04;9.88;;;4.68;;
42662;SDS011;44330;51.360;6.686;2023-07-31T06:03:29;10.10;;;4.72;;
42662;SDS011;44330;51.360;6.686;2023-07-31T06:05:55;14.20;;;4.80;;
42662;SDS011;44330;51.360;6.686;2023-07-31T06:08:21;16.02;;;4.90;;
42662;SDS011;44330;51.360;6.686;2023-07-31T06:10:46;10.88;;;5.13;;
42662;SDS011;44330;51.360;6.686;2023-07-31T06:13:12;12.00;;;4.80;;
42662;SDS011;44330;51.360;6.686;2023-07-31T06:15:38;13.93;;;5.63;;
42662;SDS011;44330;51.360;6.686;2023-07-31T06:18:03;11.15;;;4.95;;
42662;SDS011;44330;51.360;6.686;2023-07-31T06:20:32;12.10;;;4.88;;
42662;SDS011;44330;51.360;6.686;2023-07-31T06:22:59;16.27;;;5.78;;
42662;SDS011;44330;51.360;6.686;2023-07-31T06:25:24;11.88;;;5.20;;
42662;SDS011;44330;51.360;6.686;2023-07-31T06:27:50;10.57;;;4.90;;
42662;SDS011;44330;51.360;6.686;2023-07-31T06:30:16;14.13;;;6.13;;
42662;SDS011;44330;51.360;6.686;2023-07-31T06:32:41;11.77;;;5.65;;
42662;SDS011;44330;51.360;6.686;2023-07-31T06:35:08;17.05;;;6.68;;
42662;SDS011;44330;51.360;6.686;2023-07-31T06:37:34;11.93;;;5.28;;
42662;SDS011;44330;51.360;6.686;2023-07-31T06:39:59;14.95;;;4.88;;
42662;SDS011;44330;51.360;6.686;2023-07-31T06:42:25;11.90;;;4.78;;
42662;SDS011;44330;51.360;6.686;2023-07-31T06:44:51;11.45;;;4.75;;
42662;SDS011;44330;51.360;6.686;2023-07-31T06:52:20;13.20;;;5.32;;
42662;SDS011;44330;51.360;6.686;2023-07-31T06:54:59;10.00;;;4.47;;
42662;SDS011;44330;51.360;6.686;2023-07-31T06:57:29;9.13;;;4.07;;
42662;SDS011;44330;51.360;6.686;2023-07-31T06:59:55;13.48;;;5.47;;
42662;SDS011;44330;51.360;6.686;2023-07-31T07:02:21;10.48;;;5.68;;
42662;SDS011;44330;51.360;6.686;2023-07-31T07:04:46;11.50;;;4.97;;
42662;SDS011;44330;51.360;6.686;2023-07-31T07:07:12;12.38;;;4.80;;
42662;SDS011;44330;51.360;6.686;2023-07-31T07:09:37;16.08;;;4.80;;
42662;SDS011;44330;51.360;6.686;2023-07-31T07:12:03;16.27;;;5.40;;
42662;SDS011;44330;51.360;6.686;2023-07-31T07:14:28;15.32;;;5.32;;
42662;SDS011;44330;51.360;6.686;2023-07-31T07:16:54;13.48;;;4.82;;
42662;SDS011;44330;51.360;6.686;2023-07-31T07:19:20;12.23;;;4.72;;
42662;SDS011;44330;51.360;6.686;2023-07-31T07:21:46;12.07;;;4.97;;
42662;SDS011;44330;51.360;6.686;2023-07-31T07:24:11;11.85;;;5.43;;
42662;SDS011;44330;51.360;6.686;2023-07-31T07:26:37;14.93;;;5.97;;
42662;SDS011;44330;51.360;6.686;2023-07-31T07:29:03;13.60;;;5.18;;
42662;SDS011;44330;51.360;6.686;2023-07-31T07:31:28;14.93;;;4.82;;
42662;SDS011;44330;51.360;6.686;2023-07-31T07:33:55;11.63;;;5.55;;
42662;SDS011;44330;51.360;6.686;2023-07-31T07:36:22;13.90;;;5.40;;
42662;SDS011;44330;51.360;6.686;2023-07-31T07:38:47;12.27;;;5.05;;
42662;SDS011;44330;51.360;6.686;2023-07-31T07:41:13;11.00;;;4.45;;
42662;SDS011;44330;51.360;6.686;2023-07-31T07:43:39;10.98;;;4.47;;
42662;SDS011;44330;51.360;6.686;2023-07-31T07:46:04;12.82;;;5.25;;
42662;SDS011;44330;51.360;6.686;2023-07-31T07:48:30;8.25;;;3.92;;
42662;SDS011;44330;51.360;6.686;2023-07-31T07:50:55;7.88;;;4.60;;
42662;SDS011;44330;51.360;6.686;2023-07-31T07:53:21;13.57;;;5.10;;
42662;SDS011;44330;51.360;6.686;2023-07-31T07:55:46;13.18;;;4.32;;
42662;SDS011;44330;51.360;6.686;2023-07-31T07:58:12;7.82;;;3.67;;
42662;SDS011;44330;51.360;6.686;2023-07-31T08:00:38;9.95;;;4.13;;
42662;SDS011;44330;51.360;6.686;2023-07-31T08:06:01;11.00;;;3.65;;
42662;SDS011;44330;51.360;6.686;2023-07-31T08:08:27;7.35;;;3.35;;
42662;SDS011;44330;51.360;6.686;2023-07-31T08:10:53;9.52;;;3.47;;
42662;SDS011;44330;51.360;6.686;2023-07-31T08:13:19;11.45;;;3.90;;
42662;SDS011;44330;51.360;6.686;2023-07-31T08:15:44;8.02;;;3.40;;
42662;SDS011;44330;51.360;6.686;2023-07-31T08:18:10;5.68;;;3.33;;
42662;SDS011;44330;51.360;6.686;2023-07-31T08:20:36;10.45;;;3.50;;
42662;SDS011;44330;51.360;6.686;2023-07-31T08:23:02;9.10;;;4.13;;
42662;SDS011;44330;51.360;6.686;2023-07-31T08:25:29;8.68;;;3.67;;
42662;SDS011;44330;51.360;6.686;2023-07-31T08:27:54;8.88;;;3.65;;
42662;SDS011;44330;51.360;6.686;2023-07-31T08:30:20;6.45;;;3.28;;
42662;SDS011;44330;51.360;6.686;2023-07-31T08:32:46;8.13;;;3.58;;
42662;SDS011;44330;51.360;6.686;2023-07-31T08:35:12;7.80;;;3.35;;
42662;SDS011;44330;51.360;6.686;2023-07-31T08:37:39;5.20;;;3.25;;
42662;SDS011;44330;51.360;6.686;2023-07-31T08:40:06;7.27;;;3.30;;
42662;SDS011;44330;51.360;6.686;2023-07-31T08:42:32;7.45;;;3.55;;
42662;SDS011;44330;51.360;6.686;2023-07-31T08:44:58;8.95;;;3.85;;
42662;SDS011;44330;51.360;6.686;2023-07-31T08:47:25;7.32;;;3.58;;
42662;SDS011;44330;51.360;6.686;2023-07-31T08:49:51;6.88;;;3.45;;
42662;SDS011;44330;51.360;6.686;2023-07-31T08:52:19;25.92;;;4.00;;
42662;SDS011;44330;51.360;6.686;2023-07-31T08:54:45;7.65;;;3.60;;
42662;SDS011;44330;51.360;6.686;2023-07-31T08:57:11;7.95;;;3.45;;
42662;SDS011;44330;51.360;6.686;2023-07-31T08:59:37;15.05;;;3.53;;
42662;SDS011;44330;51.360;6.686;2023-07-31T09:02:06;8.33;;;3.50;;
42662;SDS011;44330;51.360;6.686;2023-07-31T09:04:33;8.63;;;3.60;;
42662;SDS011;44330;51.360;6.686;2023-07-31T09:07:01;6.57;;;3.08;;
42662;SDS011;44330;51.360;6.686;2023-07-31T09:09:29;11.98;;;3.78;;
42662;SDS011;44330;51.360;6.686;2023-07-31T09:11:58;7.90;;;3.63;;
42662;SDS011;44330;51.360;6.686;2023-07-31T09:14:24;7.15;;;3.63;;
42662;SDS011;44330;51.360;6.686;2023-07-31T09:16:51;9.13;;;3.65;;
42662;SDS011;44330;51.360;6.686;2023-07-31T09:19:32;8.13;;;3.40;;
42662;SDS011;44330;51.360;6.686;2023-07-31T09:21:59;7.18;;;3.53;;
42662;SDS011;44330;51.360;6.686;2023-07-31T09:24:28;7.45;;;3.30;;
42662;SDS011;44330;51.360;6.686;2023-07-31T09:26:57;5.05;;;3.10;;
42662;SDS011;44330;51.360;6.686;2023-07-31T09:29:24;6.35;;;3.50;;
42662;SDS011;44330;51.360;6.686;2023-07-31T09:31:51;7.25;;;3.58;;
42662;SDS011;44330;51.360;6.686;2023-07-31T09:34:17;5.68;;;3.30;;
42662;SDS011;44330;51.360;6.686;2023-07-31T09:36:45;5.38;;;2.92;;
42662;SDS011;44330;51.360;6.686;2023-07-31T09:39:15;6.57;;;3.00;;
42662;SDS011;44330;51.360;6.686;2023-07-31T09:41:43;6.53;;;3.47;;
42662;SDS011;44330;51.360;6.686;2023-07-31T09:44:10;5.07;;;3.08;;
42662;SDS011;44330;51.360;6.686;2023-07-31T09:46:38;6.20;;;3.33;;
42662;SDS011;44330;51.360;6.686;2023-07-31T09:49:04;6.05;;;3.35;;
42662;SDS011;44330;51.360;6.686;2023-07-31T09:51:36;4.00;;;2.83;;
42662;SDS011;44330;51.360;6.686;2023-07-31T09:54:15;6.38;;;3.10;;
42662;SDS011;44330;51.360;6.686;2023-07-31T09:56:48;7.20;;;2.90;;
42662;SDS011;44330;51.360;6.686;2023-07-31T09:59:17;5.82;;;3.00;;
42662;SDS011;44330;51.360;6.686;2023-07-31T10:01:45;4.88;;;2.70;;
42662;SDS011;44330;51.360;6.686;2023-07-31T10:04:11;7.95;;;3.22;;
42662;SDS011;44330;51.360;6.686;2023-07-31T10:06:38;5.75;;;2.90;;
42662;SDS011;44330;51.360;6.686;2023-07-31T10:09:06;4.95;;;2.90;;
42662;SDS011;44330;51.360;6.686;2023-07-31T10:11:34;12.50;;;3.35;;
42662;SDS011;44330;51.360;6.686;2023-07-31T10:14:07;7.45;;;3.15;;
42662;SDS011;44330;51.360;6.686;2023-07-31T10:16:34;7.60;;;3.58;;
42662;SDS011;44330;51.360;6.686;2023-07-31T10:19:02;5.55;;;3.17;;
42662;SDS011;44330;51.360;6.686;2023-07-31T10:21:30;8.00;;;3.50;;
42662;SDS011;44330;51.360;6.686;2023-07-31T10:24:01;7.18;;;3.20;;
42662;SDS011;44330;51.360;6.686;2023-07-31T10:26:31;6.10;;;3.22;;
42662;SDS011;44330;51.360;6.686;2023-07-31T10:28:58;6.82;;;3.17;;
42662;SDS011;44330;51.360;6.686;2023-07-31T10:31:25;5.60;;;3.22;;
42662;SDS011;44330;51.360;6.686;2023-07-31T10:33:58;5.30;;;3.42;;
42662;SDS011;44330;51.360;6.686;2023-07-31T10:36:25;5.68;;;3.20;;
42662;SDS011;44330;51.360;6.686;2023-07-31T10:38:52;6.78;;;3.50;;
42662;SDS011;44330;51.360;6.686;2023-07-31T10:41:17;5.93;;;3.35;;
42662;SDS011;44330;51.360;6.686;2023-07-31T10:43:45;7.50;;;3.22;;
42662;SDS011;44330;51.360;6.686;2023-07-31T10:46:12;7.80;;;3.50;;
42662;SDS011;44330;51.360;6.686;2023-07-31T10:48:39;9.38;;;3.88;;
42662;SDS011;44330;51.360;6.686;2023-07-31T10:51:12;7.60;;;3.25;;
42662;SDS011;44330;51.360;6.686;2023-07-31T10:53:38;5.90;;;3.15;;
42662;SDS011;44330;51.360;6.686;2023-07-31T10:56:07;8.45;;;3.58;;
42662;SDS011;44330;51.360;6.686;2023-07-31T10:58:34;7.50;;;3.40;;
42662;SDS011;44330;51.360;6.686;2023-07-31T11:01:01;6.60;;;3.38;;
42662;SDS011;44330;51.360;6.686;2023-07-31T11:03:48;10.57;;;3.72;;
42662;SDS011;44330;51.360;6.686;2023-07-31T11:06:17;5.47;;;3.00;;
42662;SDS011;44330;51.360;6.686;2023-07-31T11:08:50;6.03;;;3.25;;
42662;SDS011;44330;51.360;6.686;2023-07-31T11:11:17;8.95;;;3.10;;
42662;SDS011;44330;51.360;6.686;2023-07-31T11:16:14;6.07;;;2.90;;
42662;SDS011;44330;51.360;6.686;2023-07-31T11:18:41;8.23;;;3.45;;
42662;SDS011;44330;51.360;6.686;2023-07-31T11:21:11;5.47;;;2.75;;
42662;SDS011;44330;51.360;6.686;2023-07-31T11:23:57;6.13;;;2.95;;
42662;SDS011;44330;51.360;6.686;2023-07-31T11:26:52;4.00;;;2.70;;
42662;SDS011;44330;51.360;6.686;2023-07-31T11:29:20;4.18;;;2.35;;
42662;SDS011;44330;51.360;6.686;2023-07-31T11:31:52;6.25;;;2.60;;
42662;SDS011;44330;51.360;6.686;2023-07-31T11:34:17;5.47;;;2.95;;
42662;SDS011;44330;51.360;6.686;2023-07-31T11:36:55;6.63;;;2.80;;
42662;SDS011;44330;51.360;6.686;2023-07-31T11:39:20;8.57;;;2.58;;
42662;SDS011;44330;51.360;6.686;2023-07-31T11:41:49;3.88;;;2.70;;
42662;SDS011;44330;51.360;6.686;2023-07-31T11:44:14;8.90;;;2.90;;
42662;SDS011;44330;51.360;6.686;2023-07-31T11:46:40;6.07;;;2.88;;
42662;SDS011;44330;51.360;6.686;2023-07-31T11:49:05;3.67;;;2.22;;
42662;SDS011;44330;51.360;6.686;2023-07-31T11:51:31;4.28;;;2.67;;
42662;SDS011;44330;51.360;6.686;2023-07-31T11:53:57;7.28;;;2.65;;
42662;SDS011;44330;51.360;6.686;2023-07-31T11:56:25;6.25;;;2.17;;
42662;SDS011;44330;51.360;6.686;2023-07-31T11:58:58;5.50;;;2.30;;
42662;SDS011;44330;51.360;6.686;2023-07-31T12:01:24;10.85;;;2.80;;
42662;SDS011;44330;51.360;6.686;2023-07-31T12:03:52;3.97;;;2.17;;
42662;SDS011;44330;51.360;6.686;2023-07-31T12:06:18;4.60;;;1.95;;
42662;SDS011;44330;51.360;6.686;2023-07-31T12:08:46;5.90;;;2.33;;
42662;SDS011;44330;51.360;6.686;2023-07-31T12:11:11;3.08;;;2.25;;
42662;SDS011;44330;51.360;6.686;2023-07-31T12:13:40;3.65;;;2.20;;
42662;SDS011;44330;51.360;6.686;2023-07-31T12:16:05;3.47;;;2.22;;
42662;SDS011;44330;51.360;6.686;2023-07-31T12:18:35;3.38;;;2.28;;
42662;SDS011;44330;51.360;6.686;2023-07-31T12:21:02;3.92;;;2.25;;
42662;SDS011;44330;51.360;6.686;2023-07-31T12:23:31;6.60;;;2.13;;
42662;SDS011;44330;51.360;6.686;2023-07-31T12:31:12;5.47;;;2.22;;
42662;SDS011;44330;51.360;6.686;2023-07-31T12:33:39;3.97;;;2.05;;
42662;SDS011;44330;51.360;6.686;2023-07-31T12:36:07;6.32;;;2.42;;
42662;SDS011;44330;51.360;6.686;2023-07-31T12:38:40;5.82;;;2.17;;
42662;SDS011;44330;51.360;6.686;2023-07-31T12:41:23;3.63;;;2.00;;
42662;SDS011;44330;51.360;6.686;2023-07-31T12:43:49;3.25;;;2.38;;
42662;SDS011;44330;51.360;6.686;2023-07-31T12:46:15;5.30;;;2.05;;
42662;SDS011;44330;51.360;6.686;2023-07-31T12:48:42;3.38;;;2.22;;
42662;SDS011;44330;51.360;6.686;2023-07-31T12:51:07;3.03;;;2.10;;
42662;SDS011;44330;51.360;6.686;2023-07-31T12:53:33;2.65;;;2.25;;
42662;SDS011;44330;51.360;6.686;2023-07-31T12:55:58;4.82;;;2.22;;
42662;SDS011;44330;51.360;6.686;2023-07-31T12:58:24;4.68;;;2.38;;
42662;SDS011;44330;51.360;6.686;2023-07-31T13:00:50;6.03;;;2.42;;
42662;SDS011;44330;51.360;6.686;2023-07-31T13:03:16;4.03;;;2.22;;
42662;SDS011;44330;51.360;6.686;2023-07-31T13:05:41;3.53;;;2.40;;
42662;SDS011;44330;51.360;6.686;2023-07-31T13:08:07;6.97;;;2.78;;
42662;SDS011;44330;51.360;6.686;2023-07-31T13:10:33;6.03;;;2.47;;
42662;SDS011;44330;51.360;6.686;2023-07-31T13:12:58;3.50;;;2.78;;
42662;SDS011;44330;51.360;6.686;2023-07-31T13:15:24;4.35;;;2.40;;
42662;SDS011;44330;51.360;6.686;2023-07-31T13:17:49;7.05;;;2.60;;
42662;SDS011;44330;51.360;6.686;2023-07-31T13:20:15;5.72;;;2.25;;
42662;SDS011;44330;51.360;6.686;2023-07-31T13:22:41;6.35;;;2.75;;
42662;SDS011;44330;51.360;6.686;2023-07-31T13:25:06;5.20;;;2.78;;
42662;SDS011;44330;51.360;6.686;2023-07-31T13:27:32;6.40;;;3.10;;
42662;SDS011;44330;51.360;6.686;2023-07-31T13:29:59;4.07;;;2.50;;
42662;SDS011;44330;51.360;6.686;2023-07-31T13:32:24;5.03;;;3.53;;
42662;SDS011;44330;51.360;6.686;2023-07-31T13:34:50;6.32;;;2.70;;
42662;SDS011;44330;51.360;6.686;2023-07-31T13:37:16;5.43;;;3.22;;
42662;SDS011;44330;51.360;6.686;2023-07-31T13:39:42;8.77;;;3.60;;
42662;SDS011;44330;51.360;6.686;2023-07-31T13:42:08;6.00;;;3.50;;
42662;SDS011;44330;51.360;6.686;2023-07-31T13:44:37;8.68;;;3.58;;
42662;SDS011;44330;51.360;6.686;2023-07-31T13:47:03;6.93;;;3.42;;
42662;SDS011;44330;51.360;6.686;2023-07-31T13:49:29;7.07;;;3.30;;
42662;SDS011;44330;51.360;6.686;2023-07-31T13:51:55;5.32;;;3.13;;
42662;SDS011;44330;51.360;6.686;2023-07-31T13:54:24;5.20;;;3.25;;
42662;SDS011;44330;51.360;6.686;2023-07-31T13:56:50;7.97;;;3.05;;
42662;SDS011;44330;51.360;6.686;2023-07-31T13:59:17;7.50;;;3.15;;
42662;SDS011;44330;51.360;6.686;2023-07-31T14:01:43;6.57;;;3.30;;
42662;SDS011;44330;51.360;6.686;2023-07-31T14:04:09;13.50;;;4.10;;
42662;SDS011;44330;51.360;6.686;2023-07-31T14:06:34;6.25;;;3.45;;
42662;SDS011;44330;51.360;6.686;2023-07-31T14:09:00;6.00;;;3.35;;
42662;SDS011;44330;51.360;6.686;2023-07-31T14:11:26;8.18;;;3.92;;
42662;SDS011;44330;51.360;6.686;2023-07-31T14:13:51;7.28;;;3.55;;
42662;SDS011;44330;51.360;6.686;2023-07-31T14:16:17;5.80;;;3.15;;
42662;SDS011;44330;51.360;6.686;2023-07-31T14:18:43;5.68;;;3.50;;
42662;SDS011;44330;51.360;6.686;2023-07-31T14:21:10;8.35;;;3.70;;
42662;SDS011;44330;51.360;6.686;2023-07-31T14:23:36;6.43;;;3.10;;
42662;SDS011;44330;51.360;6.686;2023-07-31T14:26:01;7.50;;;3.28;;
42662;SDS011;44330;51.360;6.686;2023-07-31T14:28:28;6.13;;;3.47;;
42662;SDS011;44330;51.360;6.686;2023-07-31T14:30:54;6.03;;;3.28;;
42662;SDS011;44330;51.360;6.686;2023-07-31T14:33:20;9.05;;;3.80;;
42662;SDS011;44330;51.360;6.686;2023-07-31T14:35:45;5.07;;;3.00;;
42662;SDS011;44330;51.360;6.686;2023-07-31T14:38:11;7.18;;;3.58;;
42662;SDS011;44330;51.360;6.686;2023-07-31T14:40:37;6.57;;;3.60;;
42662;SDS011;44330;51.360;6.686;2023-07-31T14:43:03;10.07;;;3.40;;
42662;SDS011;44330;51.360;6.686;2023-07-31T14:45:29;5.65;;;3.30;;
42662;SDS011;44330;51.360;6.686;2023-07-31T14:47:55;6.65;;;3.40;;
42662;SDS011;44330;51.360;6.686;2023-07-31T14:50:21;8.80;;;3.38;;
42662;SDS011;44330;51.360;6.686;2023-07-31T14:52:53;8.90;;;3.45;;
42662;SDS011;44330;51.360;6.686;2023-07-31T14:55:25;4.63;;;2.88;;
42662;SDS011;44330;51.360;6.686;2023-07-31T14:58:00;7.95;;;3.60;;
42662;SDS011;44330;51.360;6.686;2023-07-31T15:00:26;8.00;;;3.22;;